Time;durP1;ratioP1;P1;durP2;ratioP2;P2;SDS_P1;SDS_P2;PMS_P1;PMS_P2;Temp;Humidity;BMP_temperature;BMP_pressure;BME280_temperature;BME280_humidity;BME280_pressure;Samples;Min_cycle;Max_cycle;Signal;HPM_P1;HPM_P2
2021/12/10 00:00:41;;;;;;;51.78;26.45;;;;;;;;;;5011151;28;20100;-59
2021/12/10 00:03:10;;;;;;;45.15;25.77;;;;;;;;;;5010966;28;20065;-59
2021/12/10 00:05:38;;;;;;;51.42;25.33;;;;;;;;;;5009169;28;20044;-57
2021/12/10 00:08:05;;;;;;;47.25;24.83;;;;;;;;;;5008816;28;20042;-57
2021/12/10 00:10:34;;;;;;;48.35;24.23;;;;;;;;;;5011053;28;20036;-55
2021/12/10 00:13:00;;;;;;;44.60;24.05;;;4.90;99.90;;;;;;5011246;28;20077;-59
2021/12/10 00:15:28;;;;;;;44.28;24.42;;;;;;;;;;5018313;28;20084;-59
2021/12/10 00:17:55;;;;;;;41.35;22.60;;;5.20;99.90;;;;;;5010588;28;20038;-58
2021/12/10 00:20:25;;;;;;;43.80;22.67;;;5.40;99.90;;;;;;5010282;28;20038;-57
2021/12/10 00:22:56;;;;;;;44.42;22.95;;;;;;;;;;5009727;28;20125;-59
2021/12/10 00:25:26;;;;;;;42.97;22.45;;;5.50;99.90;;;;;;5012583;28;20042;-58
2021/12/10 00:27:54;;;;;;;45.38;22.08;;;4.50;99.90;;;;;;5000641;28;20085;-58
2021/12/10 00:30:27;;;;;;;43.47;22.48;;;4.40;99.90;;;;;;5014964;28;20053;-56
2021/12/10 00:33:03;;;;;;;46.13;22.17;;;;;;;;;;5014858;28;20501;-59
2021/12/10 00:35:32;;;;;;;36.53;20.65;;;5.60;99.90;;;;;;5014052;28;20559;-58
2021/12/10 00:37:59;;;;;;;38.25;21.95;;;;;;;;;;5014329;28;20042;-58
2021/12/10 00:40:25;;;;;;;36.55;19.15;;;;;;;;;;5005725;28;20045;-56
2021/12/10 00:42:52;;;;;;;38.97;19.83;;;;;;;;;;5014513;28;20047;-58
2021/12/10 00:45:18;;;;;;;39.47;21.00;;;5.50;99.90;;;;;;4996054;28;20299;-56
2021/12/10 00:47:46;;;;;;;37.65;20.35;;;;;;;;;;4996016;28;20516;-57
2021/12/10 00:50:16;;;;;;;44.10;21.48;;;5.00;99.90;;;;;;5013930;28;20413;-55
2021/12/10 00:52:43;;;;;;;37.42;19.85;;;;;;;;;;5020834;28;20543;-58
2021/12/10 00:55:09;;;;;;;37.13;20.45;;;;;;;;;;5013523;28;20041;-59
2021/12/10 00:57:36;;;;;;;33.17;18.63;;;;;;;;;;5022859;28;20042;-58
2021/12/10 01:00:04;;;;;;;38.75;19.77;;;;;;;;;;5013351;28;20041;-59
2021/12/10 01:02:31;;;;;;;36.00;20.38;;;;;;;;;;5018265;28;20049;-56
2021/12/10 01:04:58;;;;;;;36.35;20.10;;;;;;;;;;5014571;28;20060;-56
2021/12/10 01:07:28;;;;;;;29.88;19.00;;;5.30;99.90;;;;;;5018478;28;20392;-58
2021/12/10 01:09:56;;;;;;;37.83;18.85;;;;;;;;;;5014211;28;20053;-59
2021/12/10 01:12:27;;;;;;;31.33;18.27;;;5.50;99.90;;;;;;5013119;28;20475;-56
2021/12/10 01:15:06;;;;;;;36.20;18.23;;;;;;;;;;5013767;28;20060;-56
2021/12/10 01:26:07;;;;;;;38.97;19.17;;;5.00;99.90;;;;;;4998646;28;20041;-57
2021/12/10 01:28:34;;;;;;;31.45;18.00;;;;;;;;;;5006292;28;20041;-57
2021/12/10 01:31:00;;;;;;;35.35;18.60;;;4.90;99.90;;;;;;5008684;28;20037;-57
2021/12/10 01:33:26;;;;;;;36.38;19.75;;;;;;;;;;5013510;28;20040;-57
2021/12/10 01:35:54;;;;;;;36.13;19.10;;;5.60;99.90;;;;;;5007600;28;20114;-57
2021/12/10 01:38:22;;;;;;;36.47;19.92;;;4.90;99.90;;;;;;5012460;28;20061;-55
2021/12/10 01:40:52;;;;;;;34.47;19.13;;;;;;;;;;5012720;28;20048;-58
2021/12/10 01:43:25;;;;;;;34.90;19.35;;;;;;;;;;5013478;28;20119;-58
2021/12/10 01:46:05;;;;;;;35.13;19.70;;;;;;;;;;5007374;28;20048;-58
2021/12/10 01:48:36;;;;;;;31.88;18.90;;;;;;;;;;5012211;28;20045;-59
2021/12/10 01:51:04;;;;;;;34.25;18.77;;;5.40;99.90;;;;;;5017426;28;20042;-60
2021/12/10 01:53:35;;;;;;;35.85;20.63;;;4.90;99.90;;;;;;5013146;28;20037;-58
2021/12/10 01:56:06;;;;;;;41.22;20.50;;;4.80;99.90;;;;;;5012892;28;20061;-57
2021/12/10 01:58:32;;;;;;;32.85;19.50;;;;;;;;;;5012594;28;20073;-58
2021/12/10 02:01:07;;;;;;;37.55;20.25;;;5.40;99.90;;;;;;5013052;28;20053;-59
2021/12/10 02:03:33;;;;;;;35.05;19.58;;;;;;;;;;5013351;28;20042;-57
2021/12/10 02:06:00;;;;;;;35.42;19.23;;;5.10;99.90;;;;;;5009590;28;20098;-60
2021/12/10 02:08:26;;;;;;;36.30;18.92;;;5.00;99.90;;;;;;5009015;28;20034;-58
2021/12/10 02:10:52;;;;;;;32.40;18.15;;;;;;;;;;5015134;28;20483;-59
2021/12/10 02:13:18;;;;;;;36.47;17.02;;;;;;;;;;5005781;28;20048;-58
2021/12/10 02:15:44;;;;;;;35.33;18.15;;;;;;;;;;4994073;28;20049;-61
2021/12/10 02:18:12;;;;;;;34.55;17.63;;;5.20;99.90;;;;;;5008383;28;20038;-58
2021/12/10 02:21:12;;;;;;;30.30;16.92;;;;;;;;;;5012246;28;20042;-59
2021/12/10 02:23:40;;;;;;;29.60;16.60;;;;;;;;;;4987550;28;20050;-57
2021/12/10 02:26:07;;;;;;;28.35;16.45;;;;;;;;;;5009724;28;20038;-57
2021/12/10 02:28:34;;;;;;;30.50;17.15;;;;;;;;;;5011318;28;20038;-57
2021/12/10 02:31:00;;;;;;;31.83;15.65;;;;;;;;;;5009310;28;20066;-60
2021/12/10 02:33:26;;;;;;;30.65;15.40;;;5.20;99.90;;;;;;5004957;28;20504;-60
2021/12/10 02:35:52;;;;;;;31.80;16.10;;;;;;;;;;5009762;28;20069;-59
2021/12/10 02:38:20;;;;;;;31.80;15.90;;;;;;;;;;5006141;28;20069;-57
2021/12/10 02:40:48;;;;;;;27.92;14.93;;;5.10;99.90;;;;;;5011930;28;20545;-58
2021/12/10 02:43:15;;;;;;;27.60;14.35;;;5.30;99.90;;;;;;4994627;28;20088;-58
2021/12/10 02:45:42;;;;;;;24.08;13.85;;;;;;;;;;5011321;28;20069;-58
2021/12/10 02:48:08;;;;;;;22.25;14.38;;;;;;;;;;5010604;28;20050;-56
2021/12/10 02:50:34;;;;;;;26.73;14.90;;;;;;;;;;5011930;28;20033;-58
2021/12/10 02:53:01;;;;;;;24.27;14.27;;;;;;;;;;5007966;28;20045;-58
2021/12/10 02:55:29;;;;;;;25.05;13.98;;;4.70;99.90;;;;;;5011705;28;20038;-61
2021/12/10 02:57:57;;;;;;;27.48;12.93;;;4.90;99.90;;;;;;5020474;28;20049;-58
2021/12/10 03:00:32;;;;;;;25.98;13.57;;;5.40;99.90;;;;;;5011104;28;20116;-57
2021/12/10 03:02:59;;;;;;;24.00;13.38;;;;;;;;;;5020363;28;20050;-55
2021/12/10 03:05:25;;;;;;;20.08;11.30;;;;;;;;;;5003890;28;20095;-54
2021/12/10 03:07:52;;;;;;;19.88;10.93;;;4.90;99.90;;;;;;5010951;28;20042;-58
2021/12/10 03:10:25;;;;;;;21.73;11.57;;;5.10;99.90;;;;;;5011488;28;20046;-58
2021/12/10 03:12:51;;;;;;;21.23;11.52;;;5.00;99.90;;;;;;5012557;28;20048;-58
2021/12/10 03:15:18;;;;;;;18.83;12.48;;;;;;;;;;5010647;28;20408;-56
2021/12/10 03:17:45;;;;;;;24.63;11.48;;;;;;;;;;5017548;28;20080;-58
2021/12/10 03:20:13;;;;;;;19.15;12.02;;;;;;;;;;5010161;28;20042;-58
2021/12/10 03:22:39;;;;;;;20.35;12.82;;;5.20;99.90;;;;;;5025484;28;20068;-58
2021/12/10 03:27:35;;;;;;;25.00;12.23;;;;;;;;;;5043407;28;20045;-88
2021/12/10 03:30:02;;;;;;;19.65;12.05;;;;;;;;;;5050256;28;20037;-88
2021/12/10 03:32:30;;;;;;;24.77;11.63;;;;;;;;;;5045482;28;20540;-88
2021/12/10 03:35:02;;;;;;;19.63;12.63;;;;;;;;;;5034943;28;20041;-88
2021/12/10 03:37:28;;;;;;;18.40;12.32;;;;;;;;;;5015671;28;20045;-88
2021/12/10 03:39:55;;;;;;;19.52;11.25;;;;;;;;;;5027491;28;20130;-89
2021/12/10 03:42:22;;;;;;;20.67;11.88;;;;;;;;;;5020289;28;20071;-89
2021/12/10 03:44:48;;;;;;;21.73;12.48;;;;;;;;;;5031247;28;20042;-89
2021/12/10 03:47:14;;;;;;;22.02;13.15;;;;;;;;;;5013646;28;20041;-89
2021/12/10 03:49:40;;;;;;;25.23;13.50;;;;;;;;;;5009682;28;20053;-89
2021/12/10 03:52:07;;;;;;;20.60;12.70;;;;;;;;;;5014832;28;20406;-89
2021/12/10 03:54:34;;;;;;;23.25;14.18;;;;;;;;;;5030472;28;20076;-89
2021/12/10 03:57:00;;;;;;;23.33;12.60;;;;;;;;;;5015210;28;20049;-89
2021/12/10 03:59:30;;;;;;;22.75;14.45;;;;;;;;;;5012466;28;20037;-89
2021/12/10 04:01:56;;;;;;;20.48;12.23;;;;;;;;;;5014603;28;20152;-89
2021/12/10 04:04:27;;;;;;;23.42;12.25;;;;;;;;;;5030687;28;20092;-90
2021/12/10 04:06:55;;;;;;;24.85;13.77;;;;;;;;;;5006574;28;20512;-89
2021/12/10 04:09:21;;;;;;;21.95;13.32;;;;;;;;;;5030676;28;20041;-89
2021/12/10 04:11:47;;;;;;;17.65;11.40;;;;;;;;;;5027444;28;20092;-89
2021/12/10 04:14:13;;;;;;;23.95;13.10;;;;;;;;;;5008297;28;20041;-89
2021/12/10 04:16:39;;;;;;;23.88;13.27;;;;;;;;;;5016731;28;20132;-88
2021/12/10 04:19:07;;;;;;;19.42;13.23;;;;;;;;;;5012985;28;20041;-89
2021/12/10 04:21:39;;;;;;;22.20;12.15;;;;;;;;;;5030603;28;20037;-89
2021/12/10 04:24:05;;;;;;;21.75;11.50;;;;;;;;;;5013973;28;20042;-89
2021/12/10 04:26:31;;;;;;;19.80;11.98;;;;;;;;;;5030535;28;20036;-88
2021/12/10 04:28:57;;;;;;;24.00;13.40;;;;;;;;;;5013867;28;20041;-89
2021/12/10 04:31:24;;;;;;;22.35;11.82;;;;;;;;;;5031271;28;20033;-89
2021/12/10 04:33:50;;;;;;;26.75;12.57;;;;;;;;;;5032388;28;20041;-89
2021/12/10 04:36:17;;;;;;;19.88;12.35;;;;;;;;;;5029196;28;20049;-89
2021/12/10 04:38:43;;;;;;;21.58;12.27;;;;;;;;;;5013815;28;20382;-89
2021/12/10 04:41:10;;;;;;;21.48;12.20;;;;;;;;;;5017822;28;20037;-89
2021/12/10 04:43:37;;;;;;;21.45;12.25;;;;;;;;;;5010409;28;20117;-89
2021/12/10 04:46:03;;;;;;;24.73;12.98;;;;;;;;;;5010749;28;20470;-89
2021/12/10 04:48:30;;;;;;;22.27;12.32;;;;;;;;;;5029668;28;20509;-89
2021/12/10 04:50:57;;;;;;;24.00;12.70;;;;;;;;;;5013603;28;20045;-89
2021/12/10 04:53:24;;;;;;;22.17;12.60;;;;;;;;;;5014072;28;20489;-89
2021/12/10 04:55:50;;;;;;;24.13;12.63;;;;;;;;;;5009862;28;20045;-89
2021/12/10 04:58:16;;;;;;;27.73;13.73;;;;;;;;;;5014400;28;20061;-88
2021/12/10 05:00:44;;;;;;;25.83;13.77;;;;;;;;;;5026417;28;20091;-89
2021/12/10 05:03:10;;;;;;;23.02;12.85;;;;;;;;;;5028259;28;20041;-89
2021/12/10 05:05:37;;;;;;;23.00;14.27;;;;;;;;;;5030345;28;20041;-90
2021/12/10 05:08:04;;;;;;;19.77;12.65;;;;;;;;;;5011487;28;20053;-89
2021/12/10 05:10:30;;;;;;;26.10;13.38;;;;;;;;;;5030789;28;20045;-88
2021/12/10 05:12:56;;;;;;;24.80;12.48;;;;;;;;;;5032088;28;20167;-89
2021/12/10 05:15:25;;;;;;;25.58;13.05;;;;;;;;;;5017390;28;20042;-89
2021/12/10 05:17:53;;;;;;;22.67;13.48;;;;;;;;;;5017814;28;20077;-90
2021/12/10 05:20:21;;;;;;;23.77;13.40;;;;;;;;;;5016115;28;20586;-89
2021/12/10 05:22:48;;;;;;;23.63;12.77;;;;;;;;;;5034284;28;20049;-90
2021/12/10 05:25:14;;;;;;;26.13;14.07;;;;;;;;;;5015755;28;20087;-90
2021/12/10 05:27:47;;;;;;;27.30;13.32;;;;;;;;;;5023129;28;20041;-90
2021/12/10 05:30:15;;;;;;;23.02;13.15;;;;;;;;;;5045779;28;20497;-89
2021/12/10 05:32:41;;;;;;;25.88;12.77;;;;;;;;;;5033046;28;20073;-90
2021/12/10 05:35:08;;;;;;;24.80;13.93;;;;;;;;;;5046242;28;20112;-89
2021/12/10 05:37:34;;;;;;;23.67;13.75;;;;;;;;;;5035944;28;20124;-90
2021/12/10 05:40:00;;;;;;;21.45;13.30;;;;;;;;;;5017201;28;20056;-90
2021/12/10 05:42:29;;;;;;;26.05;14.13;;;;;;;;;;5036220;28;20037;-89
2021/12/10 05:44:55;;;;;;;24.30;14.10;;;;;;;;;;5015221;28;20045;-88
2021/12/10 05:47:21;;;;;;;25.83;13.85;;;;;;;;;;5034380;28;20048;-90
2021/12/10 05:49:48;;;;;;;26.98;13.50;;;;;;;;;;5016407;28;20044;-90
2021/12/10 05:52:15;;;;;;;27.95;13.93;;;;;;;;;;5019811;28;20075;-89
2021/12/10 05:54:41;;;;;;;22.60;12.90;;;;;;;;;;5017654;28;20034;-89
2021/12/10 05:57:08;;;;;;;23.55;14.07;;;;;;;;;;5014108;28;20053;-89
2021/12/10 05:59:34;;;;;;;20.45;12.38;;;;;;;;;;5015869;28;20045;-89
2021/12/10 06:02:00;;;;;;;25.08;14.40;;;;;;;;;;5032764;28;20037;-88
2021/12/10 06:04:27;;;;;;;29.08;14.18;;;;;;;;;;5032939;28;20038;-89
2021/12/10 06:06:54;;;;;;;26.88;14.93;;;;;;;;;;5011053;28;20479;-88
2021/12/10 06:09:21;;;;;;;26.73;14.55;;;;;;;;;;5032189;28;20129;-89
2021/12/10 06:11:47;;;;;;;26.13;15.27;;;;;;;;;;5016200;28;20096;-88
2021/12/10 06:14:13;;;;;;;29.05;16.35;;;;;;;;;;5023418;28;20051;-89
2021/12/10 06:16:39;;;;;;;27.65;16.85;;;;;;;;;;5026733;28;20125;-89
2021/12/10 06:19:06;;;;;;;25.52;15.32;;;;;;;;;;5016221;28;20099;-88
2021/12/10 06:21:33;;;;;;;31.15;17.70;;;;;;;;;;5031034;28;20100;-89
2021/12/10 06:23:59;;;;;;;30.52;16.42;;;;;;;;;;5016000;28;20095;-89
2021/12/10 06:26:25;;;;;;;29.05;16.45;;;;;;;;;;5007826;28;20033;-89
2021/12/10 06:28:51;;;;;;;32.00;17.40;;;;;;;;;;5032279;28;20073;-88
2021/12/10 06:31:19;;;;;;;28.67;16.77;;;;;;;;;;5014407;28;20038;-88
2021/12/10 06:33:45;;;;;;;33.75;19.13;;;;;;;;;;5032063;28;20044;-88
2021/12/10 06:36:11;;;;;;;33.78;19.58;;;;;;;;;;5029229;28;20254;-88
2021/12/10 06:38:37;;;;;;;29.05;18.13;;;;;;;;;;5015419;28;20120;-88
2021/12/10 06:41:04;;;;;;;32.65;19.02;;;;;;;;;;5015808;28;20045;-88
2021/12/10 06:43:30;;;;;;;30.02;17.58;;;;;;;;;;5015014;28;20045;-89
2021/12/10 06:45:56;;;;;;;31.25;18.17;;;;;;;;;;5013681;28;20048;-89
2021/12/10 06:48:24;;;;;;;30.83;17.83;;;;;;;;;;5015627;28;20073;-89
2021/12/10 06:50:52;;;;;;;27.50;16.55;;;;;;;;;;5031717;28;20049;-89
2021/12/10 06:53:19;;;;;;;34.10;18.23;;;;;;;;;;5031319;28;20041;-89
2021/12/10 06:55:45;;;;;;;29.23;16.25;;;;;;;;;;5012571;28;20034;-89
2021/12/10 06:58:11;;;;;;;28.48;17.27;;;;;;;;;;5031996;28;20096;-90
2021/12/10 07:00:45;;;;;;;32.78;18.50;;;;;;;;;;5029080;28;20048;-89
2021/12/10 07:03:13;;;;;;;26.35;16.50;;;;;;;;;;5014983;28;20037;-90
2021/12/10 07:05:42;;;;;;;29.67;16.77;;;;;;;;;;5015063;28;20425;-90
2021/12/10 07:08:08;;;;;;;23.95;15.80;;;;;;;;;;5030048;28;20033;-89
2021/12/10 07:10:34;;;;;;;27.85;16.75;;;;;;;;;;5032153;28;20073;-90
2021/12/10 07:13:03;;;;;;;26.90;17.23;;;;;;;;;;5013344;28;20087;-89
2021/12/10 07:15:29;;;;;;;30.10;17.50;;;;;;;;;;5015379;28;20041;-89
2021/12/10 07:17:55;;;;;;;27.42;16.30;;;;;;;;;;5012811;28;20042;-89
2021/12/10 07:20:23;;;;;;;23.67;15.95;;;;;;;;;;5013783;28;20095;-89
2021/12/10 07:22:49;;;;;;;25.67;16.02;;;;;;;;;;5014749;28;20045;-90
2021/12/10 07:25:15;;;;;;;25.95;16.27;;;;;;;;;;5029516;28;20041;-89
2021/12/10 07:27:41;;;;;;;25.55;15.65;;;;;;;;;;5029237;28;20038;-89
2021/12/10 07:30:07;;;;;;;25.98;15.65;;;;;;;;;;5014319;28;20049;-89
2021/12/10 07:32:34;;;;;;;22.30;14.77;;;;;;;;;;5031626;28;20041;-90
2021/12/10 07:35:00;;;;;;;27.85;16.42;;;;;;;;;;5032034;28;20175;-90
2021/12/10 07:37:29;;;;;;;25.00;16.45;;;;;;;;;;5013152;28;20129;-90
2021/12/10 07:39:58;;;;;;;26.40;16.25;;;;;;;;;;5033296;28;20227;-89
2021/12/10 07:42:24;;;;;;;26.25;15.30;;;;;;;;;;5030853;28;20041;-89
2021/12/10 07:44:54;;;;;;;25.85;15.57;;;;;;;;;;5027325;28;20045;-89
2021/12/10 07:47:23;;;;;;;24.27;15.40;;;;;;;;;;5031433;28;20041;-90
2021/12/10 07:49:50;;;;;;;23.98;14.90;;;;;;;;;;5011352;28;20449;-89
2021/12/10 07:52:22;;;;;;;24.85;14.95;;;;;;;;;;5008208;28;20513;-89
2021/12/10 07:54:49;;;;;;;22.73;13.65;;;;;;;;;;5004776;28;20045;-89
2021/12/10 07:57:18;;;;;;;21.58;14.38;;;;;;;;;;5014011;28;20044;-90
2021/12/10 07:59:45;;;;;;;25.60;15.38;;;;;;;;;;5031254;28;20417;-89
2021/12/10 08:02:15;;;;;;;28.42;17.35;;;;;;;;;;5010753;28;20378;-88
2021/12/10 08:04:44;;;;;;;22.48;13.50;;;;;;;;;;5030491;28;20041;-89
2021/12/10 08:07:12;;;;;;;24.50;13.77;;;;;;;;;;5013628;28;20049;-89
2021/12/10 08:09:38;;;;;;;19.30;12.38;;;;;;;;;;5030785;28;20053;-89
2021/12/10 08:12:04;;;;;;;20.25;13.13;;;;;;;;;;5014586;28;20041;-89
2021/12/10 08:14:30;;;;;;;19.70;12.38;;;;;;;;;;5010228;28;20034;-89
2021/12/10 08:16:56;;;;;;;21.77;12.57;;;;;;;;;;5010640;28;20099;-89
2021/12/10 08:19:22;;;;;;;23.02;11.73;;;;;;;;;;5022459;28;20298;-89
2021/12/10 08:21:48;;;;;;;21.27;13.43;;;;;;;;;;5009765;28;20075;-89
2021/12/10 08:24:14;;;;;;;26.60;13.63;;;;;;;;;;5012963;28;20049;-89
2021/12/10 08:26:41;;;;;;;21.65;11.95;;;;;;;;;;5005296;28;20038;-89
2021/12/10 08:29:08;;;;;;;18.58;12.18;;;;;;;;;;5011905;28;20416;-89
2021/12/10 08:31:34;;;;;;;17.70;11.18;;;;;;;;;;5014088;28;20041;-89
2021/12/10 08:34:00;;;;;;;19.08;11.07;;;;;;;;;;5023520;28;20042;-90
2021/12/10 08:36:28;;;;;;;17.92;10.95;;;;;;;;;;5003388;28;20038;-88
2021/12/10 08:38:55;;;;;;;16.70;11.05;;;;;;;;;;5011335;28;20498;-90
2021/12/10 08:41:26;;;;;;;18.42;11.07;;;;;;;;;;5030287;28;20041;-89
2021/12/10 08:43:56;;;;;;;21.17;11.48;;;;;;;;;;5014873;28;20098;-89
2021/12/10 08:46:29;;;;;;;16.92;10.45;;;;;;;;;;5008169;28;20437;-88
2021/12/10 08:48:58;;;;;;;21.58;11.50;;;;;;;;;;5012824;28;20129;-89
2021/12/10 08:51:45;;;;;;;18.13;11.05;;;;;;;;;;5013967;28;20037;-89
2021/12/10 08:54:12;;;;;;;18.75;11.07;;;;;;;;;;5015593;28;20049;-88
2021/12/10 08:56:39;;;;;;;18.23;10.88;;;;;;;;;;5011569;28;20104;-88
2021/12/10 08:59:06;;;;;;;19.08;10.27;;;;;;;;;;5016275;28;20100;-88
2021/12/10 09:01:34;;;;;;;17.10;9.50;;;;;;;;;;5017616;28;20405;-88
2021/12/10 09:04:01;;;;;;;20.88;11.05;;;;;;;;;;5026348;28;20458;-88
2021/12/10 09:06:29;;;;;;;16.17;9.82;;;;;;;;;;5028006;28;20045;-88
2021/12/10 09:08:55;;;;;;;17.73;9.38;;;;;;;;;;5034259;28;20072;-89
2021/12/10 09:11:21;;;;;;;16.30;9.85;;;;;;;;;;5033736;28;20037;-88
2021/12/10 09:13:47;;;;;;;16.45;9.52;;;;;;;;;;5033904;28;20095;-88
2021/12/10 09:16:20;;;;;;;18.33;10.43;;;;;;;;;;5017689;28;20506;-89
2021/12/10 09:18:46;;;;;;;19.38;10.10;;;;;;;;;;5014088;28;20046;-88
2021/12/10 09:21:13;;;;;;;17.98;10.82;;;;;;;;;;5032786;28;20045;-88
2021/12/10 09:23:39;;;;;;;19.45;10.43;;;;;;;;;;5033297;28;20037;-88
2021/12/10 09:26:08;;;;;;;23.42;13.45;;;;;;;;;;5014797;28;20033;-87
2021/12/10 09:28:35;;;;;;;21.65;12.45;;;;;;;;;;5017723;28;20124;-89
2021/12/10 09:31:01;;;;;;;17.40;9.05;;;;;;;;;;5012115;28;20064;-87
2021/12/10 09:33:28;;;;;;;17.20;9.63;;;;;;;;;;5033486;28;20076;-87
2021/12/10 09:35:54;;;;;;;14.88;9.23;;;;;;;;;;5016882;28;20068;-88
2021/12/10 09:48:30;;;;;;;13.15;7.53;;;;;;;;;;4945524;28;20546;-87
2021/12/10 09:51:43;;;;;;;16.35;8.30;;;;;;;;;;4957440;28;20422;-88
2021/12/10 10:13:35;;;;;;;16.92;8.18;;;;;;;;;;4754427;29;20503;-88
2021/12/10 10:20:27;;;;;;;12.82;7.10;;;;;;;;;;4783368;29;20050;-88
2021/12/10 10:27:43;;;;;;;13.23;6.90;;;;;;;;;;4814874;29;20114;-88
2021/12/10 10:31:00;;;;;;;16.08;8.27;;;;;;;;;;4795106;29;20382;-88
2021/12/10 10:45:11;;;;;;;11.82;6.03;;;;;;;;;;4814138;29;20054;-89
2021/12/10 10:51:00;;;;;;;12.25;6.07;;;;;;;;;;5059015;22;20409;-58
2021/12/10 10:53:28;;;;;;;12.65;6.13;;;;;;;;;;5046585;28;20048;-58
2021/12/10 10:56:12;;;;;;;14.48;6.10;;;4.00;99.90;;;;;;5044047;28;20045;-56
2021/12/10 10:58:42;;;;;;;9.70;5.55;;;;;;;;;;5051779;28;20037;-58
2021/12/10 11:01:20;;;;;;;12.45;6.38;;;;;;;;;;5051220;28;20033;-58
2021/12/10 11:03:51;;;;;;;12.25;6.10;;;;;;;;;;5033060;28;20060;-58
2021/12/10 11:06:27;;;;;;;10.15;5.88;;;4.10;99.90;;;;;;5050590;28;20045;-62
2021/12/10 11:09:02;;;;;;;14.57;5.80;;;5.20;99.90;;;;;;5046098;28;20404;-58
2021/12/10 11:11:34;;;;;;;12.98;6.25;;;4.50;99.90;;;;;;5051299;28;20033;-58
2021/12/10 11:14:13;;;;;;;10.50;5.38;;;4.70;99.90;;;;;;5046680;28;20033;-57
2021/12/10 11:16:42;;;;;;;14.30;6.30;;;4.20;99.90;;;;;;5048499;28;20041;-56
2021/12/10 11:19:13;;;;;;;12.02;5.68;;;;;;;;;;5040282;28;20182;-56
2021/12/10 11:21:44;;;;;;;10.80;6.00;;;;;;;;;;5045512;28;20041;-57
2021/12/10 11:24:13;;;;;;;11.07;6.32;;;;;;;;;;5044761;28;20037;-58
2021/12/10 11:26:47;;;;;;;9.55;5.30;;;;;;;;;;5043691;28;20036;-57
2021/12/10 11:29:42;;;;;;;13.10;5.93;;;5.30;99.90;;;;;;5032775;28;20052;-57
2021/12/10 11:32:20;;;;;;;9.18;5.10;;;;;;;;;;5045406;28;20080;-58
2021/12/10 11:34:52;;;;;;;12.70;5.35;;;5.30;99.90;;;;;;5045946;28;20036;-58
2021/12/10 11:37:38;;;;;;;8.38;4.93;;;;;;;;;;5042448;28;20068;-58
2021/12/10 11:40:21;;;;;;;9.57;5.38;;;5.30;99.90;;;;;;5049679;28;20052;-56
2021/12/10 11:42:54;;;;;;;11.23;5.38;;;5.40;99.90;;;;;;5049114;28;20538;-58
2021/12/10 11:45:34;;;;;;;10.48;5.45;;;4.90;99.90;;;;;;5049960;28;20120;-58
2021/12/10 11:48:07;;;;;;;12.70;5.43;;;5.60;99.90;;;;;;5032754;28;20044;-57
2021/12/10 11:50:36;;;;;;;8.98;4.68;;;;;;;;;;5044733;28;20117;-58
2021/12/10 11:53:04;;;;;;;12.73;5.53;;;;;;;;;;5044360;28;20094;-58
2021/12/10 11:55:32;;;;;;;9.90;4.43;;;;;;;;;;5043892;28;20033;-58
2021/12/10 11:57:57;;;;;;;11.68;5.68;;;5.70;99.90;;;;;;5050641;28;20048;-57
2021/12/10 12:00:28;;;;;;;9.90;5.80;;;5.80;99.90;;;;;;5041543;28;20033;-56
2021/12/10 12:02:59;;;;;;;8.93;4.50;;;;;;;;;;5046683;28;20037;-58
2021/12/10 12:05:30;;;;;;;9.15;4.68;;;;;;;;;;5045627;28;20047;-57
2021/12/10 12:07:57;;;;;;;8.73;4.60;;;;;;;;;;5042636;28;20384;-56
2021/12/10 12:10:27;;;;;;;11.85;5.50;;;;;;;;;;5046368;28;20037;-56
2021/12/10 12:13:10;;;;;;;11.35;4.72;;;6.70;99.90;;;;;;5047118;28;20041;-57
2021/12/10 12:15:41;;;;;;;8.77;4.82;;;;;;;;;;5043356;28;20033;-55
2021/12/10 12:18:24;;;;;;;9.57;4.93;;;6.50;99.90;;;;;;5044583;28;20466;-57
2021/12/10 12:20:52;;;;;;;9.05;4.18;;;;;;;;;;5047205;28;20461;-58
2021/12/10 12:26:13;;;;;;;9.38;4.57;;;;;;;;;;5048089;28;20053;-56
2021/12/10 12:28:48;;;;;;;10.98;4.82;;;6.60;99.90;;;;;;5052341;28;20446;-58
2021/12/10 12:31:17;;;;;;;10.70;4.90;;;;;;;;;;5051330;28;20040;-58
2021/12/10 12:34:10;;;;;;;10.45;4.40;;;6.70;99.90;;;;;;5045575;28;20041;-56
2021/12/10 12:36:36;;;;;;;9.63;4.03;;;;;;;;;;5053598;28;20197;-57
2021/12/10 12:39:03;;;;;;;10.07;4.03;;;;;;;;;;5053610;28;20045;-57
2021/12/10 12:41:35;;;;;;;11.13;4.47;;;;;;;;;;5040883;28;20500;-57
2021/12/10 12:44:18;;;;;;;8.65;3.85;;;7.70;99.90;;;;;;5038214;28;20041;-56
2021/12/10 12:47:05;;;;;;;7.97;3.90;;;;;;;;;;5015379;28;20059;-58
2021/12/10 12:49:52;;;;;;;11.48;4.35;;;;;;;;;;5042681;28;20033;-58
2021/12/10 12:52:18;;;;;;;12.43;4.40;;;;;;;;;;5045935;28;20068;-58
2021/12/10 12:55:02;;;;;;;8.32;4.47;;;;;;;;;;5046170;28;20033;-57
2021/12/10 12:57:37;;;;;;;7.05;3.60;;;;;;;;;;5045697;28;20047;-57
2021/12/10 13:00:12;;;;;;;10.25;4.18;;;7.80;99.90;;;;;;5049891;28;20038;-58
2021/12/10 13:02:38;;;;;;;;;;;;;;;;;;5053018;28;20512;-56
2021/12/10 13:05:09;;;;;;;9.75;4.25;;;8.40;99.90;;;;;;5048867;28;19978;-56
2021/12/10 13:07:36;;;;;;;9.48;3.92;;;8.40;99.90;;;;;;5050397;28;20037;-57
2021/12/10 13:10:08;;;;;;;13.18;4.15;;;8.40;99.90;;;;;;5049641;28;20045;-57
2021/12/10 13:12:43;;;;;;;7.88;3.63;;;8.80;99.90;;;;;;5052833;28;20117;-58
2021/12/10 13:15:15;;;;;;;11.15;4.68;;;;;;;;;;5048137;28;20041;-57
2021/12/10 13:17:45;;;;;;;7.78;4.63;;;;;;;;;;5052735;28;20565;-58
2021/12/10 13:20:14;;;;;;;7.57;3.78;;;;;;;;;;5043594;28;20080;-58
2021/12/10 13:22:40;;;;;;;9.68;3.88;;;9.80;99.90;;;;;;5022110;28;20410;-58
2021/12/10 13:25:10;;;;;;;9.85;4.70;;;9.40;99.90;;;;;;5049941;28;20138;-57
2021/12/10 13:27:37;;;;;;;7.00;3.70;;;;;;;;;;5034959;28;20104;-58
2021/12/10 13:30:05;;;;;;;9.52;4.10;;;;;;;;;;5026146;28;20468;-58
2021/12/10 13:32:32;;;;;;;9.82;3.88;;;;;;;;;;5043548;28;20120;-58
2021/12/10 13:34:58;;;;;;;14.35;4.85;;;;;;;;;;5042031;28;20048;-57
2021/12/10 13:37:24;;;;;;;7.80;3.75;;;;;;;;;;5044794;28;20053;-55
2021/12/10 13:39:54;;;;;;;7.85;4.00;;;;;;;;;;5050391;28;20036;-57
2021/12/10 13:42:20;;;;;;;6.60;3.42;;;9.20;99.90;;;;;;5033929;28;20044;-58
2021/12/10 13:44:52;;;;;;;7.68;3.90;;;;;;;;;;5047168;28;20080;-58
2021/12/10 13:47:26;;;;;;;8.45;3.58;;;8.10;99.90;;;;;;5045818;28;20041;-58
2021/12/10 13:50:01;;;;;;;7.88;4.20;;;8.30;99.90;;;;;;5048239;28;20476;-58
2021/12/10 13:52:33;;;;;;;9.27;4.55;;;;;;;;;;5037145;28;20055;-55
2021/12/10 13:54:59;;;;;;;6.35;3.53;;;;;;;;;;5049597;28;20041;-58
2021/12/10 13:57:25;;;;;;;7.30;3.47;;;;;;;;;;5052221;28;20041;-57
2021/12/10 14:00:00;;;;;;;10.77;5.13;;;7.40;99.90;;;;;;5050040;28;20095;-57
2021/12/10 14:02:38;;;;;;;8.10;4.00;;;;;;;;;;5043272;28;20029;-55
2021/12/10 14:05:18;;;;;;;7.78;3.65;;;;;;;;;;5051636;28;20052;-57
2021/12/10 14:08:13;;;;;;;8.52;3.92;;;7.40;99.90;;;;;;5034450;28;20047;-57
2021/12/10 14:10:41;;;;;;;7.57;3.95;;;;;;;;;;5017796;28;20072;-58
2021/12/10 14:13:09;;;;;;;8.43;4.28;;;;;;;;;;5049727;28;20041;-58
2021/12/10 14:15:44;;;;;;;7.85;4.00;;;;;;;;;;5044175;28;20412;-57
2021/12/10 14:18:14;;;;;;;8.15;3.90;;;;;;;;;;5049916;28;20045;-57
2021/12/10 14:20:43;;;;;;;10.73;4.53;;;;;;;;;;5050322;28;20048;-58
2021/12/10 14:23:18;;;;;;;9.50;4.10;;;5.90;99.90;;;;;;5044350;28;20422;-56
2021/12/10 14:25:55;;;;;;;9.55;4.10;;;;;;;;;;5049957;28;20052;-58
2021/12/10 14:28:31;;;;;;;9.15;4.15;;;;;;;;;;5050559;28;20033;-58
2021/12/10 14:30:59;;;;;;;10.48;4.60;;;;;;;;;;5051314;28;20072;-57
2021/12/10 14:33:29;;;;;;;8.00;4.45;;;5.70;99.90;;;;;;5050955;28;20063;-58
2021/12/10 14:36:00;;;;;;;9.55;4.88;;;;;;;;;;5050650;28;20136;-59
2021/12/10 14:38:41;;;;;;;10.00;4.20;;;;;;;;;;5034516;28;20037;-58
2021/12/10 14:41:09;;;;;;;9.80;4.15;;;;;;;;;;5048934;28;20073;-58
2021/12/10 14:43:41;;;;;;;8.30;4.43;;;;;;;;;;5029276;28;20174;-59
2021/12/10 14:46:09;;;;;;;8.30;4.72;;;;;;;;;;5025017;28;20048;-58
2021/12/10 14:48:38;;;;;;;8.48;4.30;;;5.30;99.90;;;;;;5039433;28;20042;-59
2021/12/10 14:51:03;;;;;;;12.05;4.65;;;;;;;;;;5041684;28;20069;-58
2021/12/10 14:53:43;;;;;;;9.30;4.72;;;4.90;99.90;;;;;;5044551;28;20162;-59
2021/12/10 14:56:17;;;;;;;11.93;5.03;;;;;;;;;;5036480;28;20052;-59
2021/12/10 14:59:01;;;;;;;12.13;5.05;;;;;;;;;;5031285;28;20464;-59
2021/12/10 15:01:27;;;;;;;8.55;4.40;;;4.30;99.90;;;;;;5014536;28;20036;-58
2021/12/10 15:03:54;;;;;;;11.20;4.90;;;4.00;99.90;;;;;;5037929;28;20044;-58
2021/12/10 15:06:21;;;;;;;8.77;4.32;;;;;;;;;;5039409;28;20081;-58
2021/12/10 15:08:51;;;;;;;10.13;6.53;;;;;;;;;;5012400;28;20047;-58
2021/12/10 15:11:24;;;;;;;10.20;6.20;;;;;;;;;;5033350;28;20095;-58
2021/12/10 15:13:50;;;;;;;10.23;6.40;;;3.80;99.90;;;;;;5045709;28;20042;-59
2021/12/10 15:16:19;;;;;;;9.95;5.80;;;;;;;;;;5049312;28;20043;-58
2021/12/10 15:18:54;;;;;;;10.93;5.43;;;;;;;;;;5046876;28;20037;-58
2021/12/10 15:21:23;;;;;;;14.25;6.60;;;;;;;;;;5028752;28;20048;-57